Sepulveda, California
Current Conditions -  °F | °C
As of 2:53 AM on Friday 24 Oct 2014 (Local Time) from KBUR Reporting Station
Clear Clear  
Wind Chill: 61°   Ceiling: Unl
Heat Index: 61°   Visibility: 10mi
Dew Point: 43°   Wind: 0mph
Humidity: 52%   Direction: NA
Pressure: 29.97"   Gusts: NA
Location:  34.1618°N, 118.281°W
Report Text: KBUR 240953Z 00000KT 10SM CLR 16/06 A2997 RMK AO2 SLP136 T01610061
Loading
Personal Weather Stations






























Interactive Weather Map
Tropical Storm Tracking
New forecast layout! Learn more

10-Day Weather Forecast

Advertisements
Track Severe Weather on mobile